Time;durP1;ratioP1;P1;durP2;ratioP2;P2;SDS_P1;SDS_P2;PMS_P1;PMS_P2;Temp;Humidity;BMP_temperature;BMP_pressure;BME280_temperature;BME280_humidity;BME280_pressure;Samples;Min_cycle;Max_cycle;Signal;HPM_P1;HPM_P2
2023/06/21 00:00:15;;;;;;;5.57;2.43;;;18.30;99.90;;;;;;5016018;28;20418;-53
2023/06/21 00:02:45;;;;;;;6.40;1.20;;;18.30;99.90;;;;;;5016158;28;20413;-53
2023/06/21 00:05:11;;;;;;;7.10;1.80;;;18.30;99.90;;;;;;5016225;28;20419;-53
2023/06/21 00:07:40;;;;;;;2.60;1.73;;;18.30;99.90;;;;;;5015941;28;20440;-53
2023/06/21 00:10:07;;;;;;;5.17;2.00;;;18.30;99.90;;;;;;5015781;28;20840;-53
2023/06/21 00:12:34;;;;;;;4.27;1.83;;;18.40;99.90;;;;;;5015836;28;20428;-52
2023/06/21 00:15:00;;;;;;;5.07;1.73;;;18.40;99.90;;;;;;5015787;28;20465;-54
2023/06/21 00:17:26;;;;;;;4.13;1.77;;;18.40;99.90;;;;;;5015704;28;20462;-53
2023/06/21 00:19:54;;;;;;;2.63;1.80;;;18.40;99.90;;;;;;5015752;28;20218;-53
2023/06/21 00:22:22;;;;;;;4.47;1.87;;;18.40;99.90;;;;;;5015605;28;20269;-54
2023/06/21 00:24:51;;;;;;;3.13;1.63;;;18.40;99.90;;;;;;5015680;28;20423;-53
2023/06/21 00:27:17;;;;;;;5.50;2.00;;;18.30;99.90;;;;;;5015501;28;20426;-55
2023/06/21 00:29:43;;;;;;;6.87;2.30;;;18.30;99.90;;;;;;5015189;28;20954;-54
2023/06/21 00:32:09;;;;;;;2.90;2.10;;;18.30;99.90;;;;;;5015706;28;20439;-54
2023/06/21 00:34:35;;;;;;;7.20;2.50;;;18.40;99.90;;;;;;5015267;28;20190;-54
2023/06/21 00:37:03;;;;;;;7.13;2.40;;;18.40;99.90;;;;;;5015349;28;20184;-54
2023/06/21 00:39:29;;;;;;;4.30;2.40;;;18.40;99.90;;;;;;5015315;28;20198;-54
2023/06/21 00:41:55;;;;;;;5.87;2.40;;;18.30;99.90;;;;;;5015135;28;20984;-54
2023/06/21 00:44:21;;;;;;;6.80;2.13;;;18.30;99.90;;;;;;5015165;28;20425;-54
2023/06/21 00:46:46;;;;;;;6.03;2.47;;;18.30;99.90;;;;;;5015520;28;20610;-53
2023/06/21 00:49:12;;;;;;;6.33;2.40;;;18.20;99.90;;;;;;5015319;28;20210;-54
2023/06/21 00:51:38;;;;;;;3.77;2.07;;;18.20;99.90;;;;;;5014467;28;20222;-53
2023/06/21 00:54:05;;;;;;;8.73;1.90;;;18.20;99.90;;;;;;5014818;28;20334;-53
2023/06/21 00:56:34;;;;;;;4.40;2.33;;;18.20;99.90;;;;;;5015024;28;20438;-54
2023/06/21 00:59:00;;;;;;;8.03;2.70;;;18.20;99.90;;;;;;5015165;28;20509;-54
2023/06/21 01:01:28;;;;;;;6.43;2.43;;;18.10;99.90;;;;;;5015267;28;20446;-55
2023/06/21 01:03:54;;;;;;;14.50;2.57;;;18.20;99.90;;;;;;5014919;28;20201;-54
2023/06/21 01:06:32;;;;;;;4.70;2.30;;;18.20;99.90;;;;;;5014786;28;20419;-53
2023/06/21 01:09:10;;;;;;;8.60;2.90;;;18.20;99.90;;;;;;5014945;28;20453;-54
2023/06/21 01:12:05;;;;;;;5.83;3.00;;;18.20;99.90;;;;;;5014894;28;20896;-54
2023/06/21 01:14:41;;;;;;;8.23;3.03;;;18.20;99.90;;;;;;5015137;28;20415;-54
2023/06/21 01:17:09;;;;;;;9.63;3.30;;;18.30;99.90;;;;;;5015030;28;20820;-54
2023/06/21 01:20:13;;;;;;;4.23;2.83;;;18.40;99.90;;;;;;5014666;28;20435;-54
2023/06/21 01:23:09;;;;;;;8.60;2.90;;;18.40;99.90;;;;;;5014647;28;20416;-54
2023/06/21 01:25:46;;;;;;;5.37;2.90;;;18.40;99.90;;;;;;5014587;28;20413;-56
2023/06/21 01:28:53;;;;;;;4.93;2.70;;;18.30;99.90;;;;;;5014183;28;20464;-55
2023/06/21 01:31:22;;;;;;;5.37;3.03;;;18.30;99.90;;;;;;5014106;28;20438;-54
2023/06/21 01:33:49;;;;;;;7.93;3.90;;;18.30;99.90;;;;;;5014141;28;20921;-53
2023/06/21 01:36:15;;;;;;;6.27;3.50;;;18.20;99.90;;;;;;5014101;28;20843;-54
2023/06/21 01:38:40;;;;;;;6.10;4.07;;;18.30;99.90;;;;;;5014103;28;20433;-54
2023/06/21 01:41:10;;;;;;;6.43;4.60;;;18.30;99.90;;;;;;5014025;28;20221;-54
2023/06/21 01:43:36;;;;;;;9.70;5.00;;;18.30;99.90;;;;;;5014375;28;20195;-54
2023/06/21 01:46:04;;;;;;;8.13;4.90;;;18.30;99.90;;;;;;5014275;28;20424;-54
2023/06/21 01:48:33;;;;;;;7.37;4.60;;;18.30;99.90;;;;;;5014365;28;20461;-53
2023/06/21 01:51:01;;;;;;;12.53;5.27;;;18.30;99.90;;;;;;5014204;28;20564;-54
2023/06/21 01:53:26;;;;;;;8.20;5.30;;;18.30;99.90;;;;;;5013486;28;20477;-54
2023/06/21 01:55:56;;;;;;;7.43;5.60;;;18.30;99.90;;;;;;5014295;28;20414;-54
2023/06/21 01:58:22;;;;;;;8.60;5.27;;;18.30;99.90;;;;;;5014397;28;20175;-54
2023/06/21 02:00:48;;;;;;;7.50;4.83;;;18.30;99.90;;;;;;5013938;28;20424;-54
2023/06/21 02:03:16;;;;;;;11.20;5.40;;;18.30;99.90;;;;;;5015934;28;20480;-54
2023/06/21 02:05:43;;;;;;;7.93;5.20;;;18.40;99.90;;;;;;5018241;28;20825;-54
2023/06/21 02:08:15;;;;;;;7.57;5.23;;;18.40;99.90;;;;;;5017994;28;20945;-54
2023/06/21 02:10:42;;;;;;;11.03;5.50;;;18.50;99.90;;;;;;5018168;28;20468;-54
2023/06/21 02:13:08;;;;;;;9.33;5.17;;;18.50;99.90;;;;;;5018124;28;20424;-54
2023/06/21 02:15:34;;;;;;;5.80;4.63;;;18.40;99.90;;;;;;5018201;28;20406;-55
2023/06/21 02:18:01;;;;;;;6.03;4.20;;;18.40;99.90;;;;;;5018199;28;20246;-55
2023/06/21 02:20:27;;;;;;;7.30;5.03;;;18.40;99.90;;;;;;5017855;28;20179;-54
2023/06/21 02:22:53;;;;;;;10.03;4.77;;;18.40;99.90;;;;;;5018105;28;20453;-55
2023/06/21 02:25:18;;;;;;;6.77;4.53;;;18.40;99.90;;;;;;5017263;28;20537;-54
2023/06/21 02:27:44;;;;;;;8.83;5.20;;;18.40;99.90;;;;;;5017599;28;20178;-55
2023/06/21 02:30:10;;;;;;;7.37;4.90;;;18.40;99.90;;;;;;5017627;28;20277;-55
2023/06/21 02:32:36;;;;;;;9.07;5.67;;;18.30;99.90;;;;;;5018078;28;20179;-55
2023/06/21 02:35:02;;;;;;;7.30;5.03;;;18.30;99.90;;;;;;5017890;28;20467;-56
2023/06/21 02:37:28;;;;;;;10.13;6.00;;;18.20;99.90;;;;;;5018037;28;20586;-55
2023/06/21 02:39:55;;;;;;;9.90;5.47;;;18.10;99.90;;;;;;5017643;28;20208;-55
2023/06/21 02:42:20;;;;;;;12.07;6.47;;;18.10;99.90;;;;;;5017556;28;20421;-55
2023/06/21 02:44:46;;;;;;;10.60;6.07;;;18.00;99.90;;;;;;5017223;28;20484;-54
2023/06/21 02:47:11;;;;;;;9.83;6.50;;;18.10;99.90;;;;;;5017463;28;20187;-55
2023/06/21 02:49:37;;;;;;;10.53;6.70;;;18.00;99.90;;;;;;5017158;28;20605;-55
2023/06/21 02:52:04;;;;;;;13.40;7.10;;;18.00;99.90;;;;;;5017368;28;20195;-55
2023/06/21 02:54:30;;;;;;;15.00;7.63;;;18.00;99.90;;;;;;5017283;28;20777;-55
2023/06/21 02:56:55;;;;;;;9.80;6.83;;;18.00;99.90;;;;;;5017039;28;20813;-55
2023/06/21 02:59:22;;;;;;;9.37;6.90;;;18.00;99.90;;;;;;5017524;28;20452;-54
2023/06/21 03:01:48;;;;;;;12.70;7.87;;;18.00;99.90;;;;;;5016887;28;20191;-54
2023/06/21 03:04:18;;;;;;;9.87;7.77;;;18.00;99.90;;;;;;5016865;28;20471;-55
2023/06/21 03:06:44;;;;;;;12.23;7.40;;;18.00;99.90;;;;;;5016746;28;20274;-54
2023/06/21 03:09:10;;;;;;;8.30;6.93;;;18.00;99.90;;;;;;5016938;28;20547;-54
2023/06/21 03:11:35;;;;;;;9.97;7.63;;;18.10;99.90;;;;;;5017039;28;20638;-56
2023/06/21 03:14:01;;;;;;;12.70;8.00;;;18.20;99.90;;;;;;5016742;28;20278;-54
2023/06/21 03:16:26;;;;;;;12.10;8.43;;;18.10;99.90;;;;;;5016437;28;20286;-55
2023/06/21 03:18:52;;;;;;;10.70;7.83;;;18.20;99.90;;;;;;5016462;28;20188;-54
2023/06/21 03:21:17;;;;;;;10.23;7.33;;;18.10;99.90;;;;;;5016798;28;20267;-54
2023/06/21 03:23:43;;;;;;;10.50;7.60;;;18.20;99.90;;;;;;5016863;28;20518;-54
2023/06/21 03:26:09;;;;;;;9.00;6.97;;;18.10;99.90;;;;;;5016713;28;20187;-54
2023/06/21 03:28:35;;;;;;;7.23;5.93;;;18.10;99.90;;;;;;5016321;28;20564;-54
2023/06/21 03:31:00;;;;;;;8.73;6.83;;;18.20;99.90;;;;;;5016599;28;20198;-54
2023/06/21 03:33:27;;;;;;;8.40;6.73;;;18.20;99.90;;;;;;5016952;28;20578;-54
2023/06/21 03:35:53;;;;;;;8.13;6.50;;;18.30;99.90;;;;;;5016768;28;20223;-54
2023/06/21 03:38:19;;;;;;;8.57;7.13;;;18.30;99.90;;;;;;5016734;28;20441;-54
2023/06/21 03:40:44;;;;;;;10.23;6.60;;;18.30;99.90;;;;;;5016516;28;20531;-54
2023/06/21 03:43:10;;;;;;;8.43;7.53;;;18.40;99.90;;;;;;5016413;28;20709;-55
2023/06/21 03:45:35;;;;;;;8.83;6.87;;;18.40;99.90;;;;;;5016393;28;20571;-54
2023/06/21 03:48:03;;;;;;;8.27;7.47;;;18.50;99.90;;;;;;5015991;28;20242;-54
2023/06/21 03:50:29;;;;;;;10.40;7.70;;;18.50;99.90;;;;;;5016311;28;20191;-54
2023/06/21 03:52:55;;;;;;;9.30;7.70;;;18.50;99.90;;;;;;5016088;28;20572;-55
2023/06/21 03:55:21;;;;;;;9.43;7.10;;;18.60;99.90;;;;;;5016628;28;20453;-55
2023/06/21 03:57:46;;;;;;;10.67;8.10;;;18.70;99.90;;;;;;5015935;28;20217;-54
2023/06/21 04:00:13;;;;;;;9.67;8.00;;;18.80;99.90;;;;;;5016258;28;20237;-55
2023/06/21 04:02:39;;;;;;;11.50;7.97;;;18.80;99.90;;;;;;5016398;28;20206;-55
2023/06/21 04:05:05;;;;;;;8.87;7.97;;;18.80;99.90;;;;;;5015906;28;20434;-55
2023/06/21 04:07:31;;;;;;;12.77;8.90;;;18.90;99.90;;;;;;5015614;28;20246;-55
2023/06/21 04:09:57;;;;;;;13.63;9.27;;;19.00;99.90;;;;;;5015824;28;20462;-54
2023/06/21 04:12:23;;;;;;;10.40;8.70;;;19.00;99.90;;;;;;5015851;28;20187;-55
2023/06/21 04:14:48;;;;;;;9.90;8.90;;;19.00;99.90;;;;;;5016070;28;20189;-55
2023/06/21 04:17:14;;;;;;;11.03;8.63;;;19.00;99.90;;;;;;5015929;28;20188;-56
2023/06/21 04:19:39;;;;;;;11.30;9.70;;;19.00;99.90;;;;;;5015750;28;20210;-55
2023/06/21 04:22:05;;;;;;;15.07;10.30;;;19.10;99.90;;;;;;5015930;28;20183;-56
2023/06/21 04:24:31;;;;;;;11.80;10.37;;;19.20;99.90;;;;;;5015880;28;20179;-55
2023/06/21 04:26:58;;;;;;;15.53;10.87;;;19.20;99.90;;;;;;5015788;28;20266;-55
2023/06/21 04:29:24;;;;;;;16.40;11.07;;;19.30;99.90;;;;;;5015744;28;20714;-55
2023/06/21 04:31:52;;;;;;;14.30;11.50;;;19.30;99.90;;;;;;5015462;28;20767;-53
2023/06/21 04:34:18;;;;;;;14.10;10.23;;;19.30;99.90;;;;;;5015373;28;20845;-55
2023/06/21 04:36:47;;;;;;;12.63;10.30;;;19.40;99.90;;;;;;5015800;28;20854;-55
2023/06/21 04:39:17;;;;;;;14.20;11.10;;;19.50;99.90;;;;;;5015765;28;20426;-55
2023/06/21 04:41:42;;;;;;;15.63;12.30;;;19.50;99.90;;;;;;5015412;28;20843;-55
2023/06/21 04:44:08;;;;;;;14.80;11.87;;;19.60;99.90;;;;;;5015084;28;20418;-55
2023/06/21 04:46:35;;;;;;;13.50;11.70;;;19.60;99.90;;;;;;5015272;28;20184;-55
2023/06/21 04:49:04;;;;;;;14.23;10.73;;;19.70;99.90;;;;;;5015018;28;20686;-55
2023/06/21 04:51:30;;;;;;;15.63;10.77;;;19.70;99.90;;;;;;5015103;28;20874;-55
2023/06/21 04:53:58;;;;;;;14.37;11.53;;;19.80;99.90;;;;;;5014785;28;20477;-56
2023/06/21 04:56:27;;;;;;;16.43;12.00;;;19.90;99.90;;;;;;5015331;28;20498;-55
2023/06/21 04:58:53;;;;;;;15.27;11.27;;;20.00;99.90;;;;;;5015013;28;20909;-56
2023/06/21 05:01:19;;;;;;;16.00;12.63;;;20.10;99.90;;;;;;5015200;28;20447;-55
2023/06/21 05:03:48;;;;;;;18.53;13.60;;;20.20;99.90;;;;;;5015353;28;20573;-55
2023/06/21 05:06:17;;;;;;;16.50;12.30;;;20.20;99.90;;;;;;5015149;28;20261;-55
2023/06/21 05:08:43;;;;;;;16.97;12.67;;;20.30;99.90;;;;;;5014987;28;20466;-55
2023/06/21 05:11:09;;;;;;;19.67;13.87;;;20.30;99.90;;;;;;5015051;28;20433;-55
2023/06/21 05:13:34;;;;;;;20.80;14.30;;;20.50;99.90;;;;;;5014736;28;20187;-55
2023/06/21 05:16:00;;;;;;;20.10;13.77;;;20.40;99.90;;;;;;5014925;28;20237;-55
2023/06/21 05:18:26;;;;;;;19.27;14.13;;;20.30;99.90;;;;;;5014764;28;20202;-55
2023/06/21 05:20:52;;;;;;;19.90;14.97;;;20.20;99.90;;;;;;5014664;28;20919;-56
2023/06/21 05:23:17;;;;;;;19.20;14.70;;;20.00;99.90;;;;;;5014590;28;20257;-55
2023/06/21 05:25:43;;;;;;;20.80;16.23;;;19.90;99.90;;;;;;5014235;28;20206;-55
2023/06/21 05:28:09;;;;;;;23.17;16.97;;;19.80;99.90;;;;;;5014485;28;20234;-55
2023/06/21 05:30:35;;;;;;;24.63;18.37;;;19.80;99.90;;;;;;5014305;28;20245;-55
2023/06/21 05:33:00;;;;;;;23.07;19.87;;;19.70;99.90;;;;;;5014601;28;20419;-55
2023/06/21 05:35:26;;;;;;;25.07;19.33;;;19.70;99.90;;;;;;5014405;28;20241;-55
2023/06/21 05:37:53;;;;;;;27.50;20.10;;;19.70;99.90;;;;;;5013783;28;20182;-55
2023/06/21 05:40:19;;;;;;;36.43;23.63;;;19.70;99.90;;;;;;5013203;28;20219;-55
2023/06/21 05:42:45;;;;;;;28.53;21.90;;;19.60;99.90;;;;;;5014303;28;20431;-55
2023/06/21 05:45:11;;;;;;;36.40;26.93;;;19.60;99.90;;;;;;5014093;28;20747;-55
2023/06/21 05:47:36;;;;;;;40.40;27.80;;;19.60;99.90;;;;;;5014230;28;20187;-55
2023/06/21 05:50:03;;;;;;;40.53;27.33;;;19.60;99.90;;;;;;5014195;28;20222;-55
2023/06/21 05:52:29;;;;;;;46.40;31.03;;;19.60;99.90;;;;;;5013576;28;20266;-55
2023/06/21 05:54:55;;;;;;;41.93;29.67;;;19.70;99.90;;;;;;5013614;28;20760;-54
2023/06/21 05:57:21;;;;;;;48.60;30.97;;;19.70;99.90;;;;;;5013631;28;20419;-54
2023/06/21 05:59:47;;;;;;;45.40;30.47;;;19.70;99.90;;;;;;5014176;28;20206;-55
2023/06/21 06:02:12;;;;;;;45.00;31.23;;;19.70;99.90;;;;;;5013941;28;20410;-55
2023/06/21 06:04:39;;;;;;;47.97;32.00;;;19.70;99.90;;;;;;5013275;28;20195;-55
2023/06/21 06:07:05;;;;;;;47.13;30.97;;;19.70;99.90;;;;;;5013959;28;20328;-54
2023/06/21 06:09:31;;;;;;;47.47;32.83;;;19.80;99.90;;;;;;5013938;28;20890;-55
2023/06/21 06:11:57;;;;;;;50.40;33.20;;;20.00;99.90;;;;;;5013716;28;20516;-55
2023/06/21 06:14:25;;;;;;;48.20;32.77;;;20.20;99.90;;;;;;5014311;28;20426;-55
2023/06/21 06:16:51;;;;;;;47.10;34.17;;;20.40;99.90;;;;;;5013799;28;20187;-55
2023/06/21 06:19:17;;;;;;;45.17;33.40;;;20.70;99.90;;;;;;5013938;28;20517;-55
2023/06/21 06:21:44;;;;;;;52.90;36.53;;;21.00;99.90;;;;;;5013804;28;20187;-55
2023/06/21 06:24:10;;;;;;;46.27;33.77;;;21.20;99.90;;;;;;5014111;28;20183;-55
2023/06/21 06:26:35;;;;;;;45.00;31.77;;;21.40;99.90;;;;;;5013915;28;20818;-55
2023/06/21 06:29:01;;;;;;;39.30;29.60;;;21.60;99.90;;;;;;5013553;28;20212;-55
2023/06/21 06:31:30;;;;;;;38.43;30.23;;;21.60;99.90;;;;;;5013865;28;20208;-55
2023/06/21 06:33:55;;;;;;;37.67;29.73;;;21.60;99.90;;;;;;5013965;28;20197;-56
2023/06/21 06:36:21;;;;;;;38.73;28.70;;;21.80;99.90;;;;;;5014065;28;20980;-55
2023/06/21 06:38:48;;;;;;;36.23;27.10;;;22.00;99.90;;;;;;5013990;28;20246;-55
2023/06/21 06:41:15;;;;;;;34.83;27.20;;;22.40;99.90;;;;;;5014000;28;20278;-56
2023/06/21 06:43:40;;;;;;;34.40;27.10;;;22.40;99.90;;;;;;5013414;28;20972;-56
2023/06/21 06:46:06;;;;;;;34.07;27.10;;;22.60;85.10;;;;;;5013702;28;20510;-56
2023/06/21 06:48:32;;;;;;;37.40;26.20;;;22.40;16.40;;;;;;5013325;28;20591;-56
2023/06/21 06:50:58;;;;;;;32.80;25.67;;;22.40;1.00;;;;;;5016213;28;20187;-55
2023/06/21 06:53:23;;;;;;;33.20;26.73;;;22.40;4.40;;;;;;5017318;28;20269;-56
2023/06/21 06:55:53;;;;;;;36.37;28.10;;;22.40;1.00;;;;;;5017380;28;20188;-56
2023/06/21 06:58:19;;;;;;;36.37;28.90;;;22.20;1.00;;;;;;5017528;28;20202;-55
2023/06/21 07:00:45;;;;;;;32.57;26.80;;;22.10;1.00;;;;;;5017252;28;20509;-55
2023/06/21 07:03:11;;;;;;;36.63;27.87;;;22.20;60.80;;;;;;5017177;28;20445;-55
2023/06/21 07:05:42;;;;;;;31.30;27.30;;;22.20;93.40;;;;;;5017124;28;20542;-55
2023/06/21 07:08:08;;;;;;;40.37;26.30;;;22.20;68.40;;;;;;5016877;28;20223;-55
2023/06/21 07:10:33;;;;;;;31.80;25.70;;;22.30;65.80;;;;;;5016744;28;20507;-55
2023/06/21 07:13:02;;;;;;;36.23;25.10;;;22.60;1.00;;;;;;5016912;28;20216;-55
2023/06/21 07:15:28;;;;;;;33.53;25.30;;;22.90;1.00;;;;;;5017193;28;20275;-55
2023/06/21 07:17:54;;;;;;;28.50;25.53;;;23.30;1.00;;;;;;5017399;28;20448;-55
2023/06/21 07:20:20;;;;;;;32.80;27.90;;;23.40;28.70;;;;;;5017074;28;20425;-55
2023/06/21 07:22:45;;;;;;;36.53;28.47;;;23.70;99.90;;;;;;5016703;28;20419;-53
2023/06/21 07:25:11;;;;;;;31.40;28.00;;;24.10;99.90;;;;;;5016390;28;20211;-53
2023/06/21 07:27:37;;;;;;;29.57;26.37;;;24.00;99.90;;;;;;5016686;28;20181;-53
2023/06/21 07:30:04;;;;;;;29.47;26.30;;;23.70;1.00;;;;;;5016449;28;20222;-53
2023/06/21 07:32:30;;;;;;;30.70;27.40;;;23.50;26.70;;;;;;5016498;28;20183;-53
2023/06/21 07:34:58;;;;;;;31.30;28.00;;;23.60;99.90;;;;;;5016668;28;20428;-53
2023/06/21 07:37:23;;;;;;;29.50;25.37;;;23.70;1.00;;;;;;5016779;28;20183;-53
2023/06/21 07:39:49;;;;;;;26.70;24.00;;;23.70;1.00;;;;;;5016264;28;20524;-53
2023/06/21 07:42:15;;;;;;;27.17;24.23;;;23.90;1.00;;;;;;5016297;28;20185;-53
2023/06/21 07:44:40;;;;;;;29.00;25.50;;;23.80;1.00;;;;;;5016744;28;20227;-53
2023/06/21 07:47:06;;;;;;;28.20;25.20;;;23.70;1.00;;;;;;5016524;28;20191;-53
2023/06/21 07:49:32;;;;;;;28.77;25.80;;;23.90;1.00;;;;;;5016185;28;20217;-53
2023/06/21 07:51:57;;;;;;;27.00;24.20;;;24.10;1.00;;;;;;5016356;28;20177;-53
2023/06/21 07:54:23;;;;;;;27.23;24.50;;;24.50;1.00;;;;;;5015681;28;20241;-53
2023/06/21 07:56:49;;;;;;;28.27;25.27;;;25.10;1.00;;;;;;5016231;28;20543;-53
2023/06/21 07:59:14;;;;;;;28.60;25.70;;;25.00;1.00;;;;;;5016061;28;20430;-53
2023/06/21 08:01:40;;;;;;;27.90;24.90;;;25.20;1.00;;;;;;5016057;28;20202;-53
2023/06/21 08:04:05;;;;;;;28.97;26.07;;;25.40;1.00;;;;;;5016143;28;20635;-53
2023/06/21 08:06:31;;;;;;;26.20;23.27;;;25.10;1.00;;;;;;5015907;28;20179;-53
2023/06/21 08:08:56;;;;;;;27.83;24.93;;;25.10;1.00;;;;;;5014727;28;20237;-52
2023/06/21 08:11:22;;;;;;;34.73;26.40;;;25.20;1.00;;;;;;5015792;28;20183;-53
2023/06/21 08:13:48;;;;;;;28.63;25.60;;;24.70;1.00;;;;;;5015603;28;20179;-53
2023/06/21 08:16:13;;;;;;;28.13;24.23;;;24.60;1.00;;;;;;5015848;28;20494;-53
2023/06/21 08:18:39;;;;;;;26.50;23.90;;;24.70;1.00;;;;;;5015933;28;20188;-52
2023/06/21 08:21:05;;;;;;;23.70;21.30;;;25.00;1.00;;;;;;5015276;28;20194;-53
2023/06/21 08:23:31;;;;;;;25.13;21.10;;;25.40;1.00;;;;;;5015625;28;20191;-53
2023/06/21 08:25:57;;;;;;;23.70;21.10;;;25.90;1.00;;;;;;5015239;28;20418;-53
2023/06/21 08:28:22;;;;;;;23.40;21.10;;;25.80;1.00;;;;;;5015220;28;20213;-53
2023/06/21 08:30:48;;;;;;;21.67;19.47;;;25.40;1.00;;;;;;5015130;28;20183;-53
2023/06/21 08:33:14;;;;;;;21.33;19.13;;;25.10;1.00;;;;;;5015212;28;20190;-53
2023/06/21 08:35:39;;;;;;;18.10;16.10;;;24.60;1.00;;;;;;5015367;28;20186;-53
2023/06/21 08:38:05;;;;;;;19.23;17.23;;;24.40;1.00;;;;;;5015539;28;20186;-53
2023/06/21 08:40:32;;;;;;;20.93;18.47;;;24.40;1.00;;;;;;5015672;28;20193;-53
2023/06/21 08:42:59;;;;;;;18.33;16.43;;;24.40;1.00;;;;;;5015268;28;20606;-53
2023/06/21 08:45:25;;;;;;;18.17;16.27;;;24.40;1.00;;;;;;5015197;28;20511;-53
2023/06/21 08:47:51;;;;;;;15.83;14.23;;;24.30;1.00;;;;;;5015192;28;20519;-52
2023/06/21 08:50:21;;;;;;;17.50;15.80;;;24.50;1.00;;;;;;5015035;28;20317;-53
2023/06/21 08:52:49;;;;;;;17.57;14.77;;;24.60;1.00;;;;;;5015012;28;20469;-53
2023/06/21 08:55:18;;;;;;;16.73;15.00;;;24.70;1.00;;;;;;5015189;28;20501;-53
2023/06/21 08:57:56;;;;;;;14.90;13.30;;;24.90;1.00;;;;;;5014968;28;20935;-52
2023/06/21 09:00:26;;;;;;;22.03;16.37;;;25.10;1.00;;;;;;5014871;28;20758;-53
2023/06/21 09:02:55;;;;;;;18.80;15.97;;;24.90;1.00;;;;;;5014626;28;20915;-53
2023/06/21 09:06:09;;;;;;;15.80;14.20;;;24.60;1.00;;;;;;5015156;28;20432;-53
2023/06/21 09:08:37;;;;;;;17.20;13.90;;;24.80;1.00;;;;;;5015052;28;20849;-53
2023/06/21 09:11:05;;;;;;;15.90;14.27;;;25.50;1.00;;;;;;5014952;28;20706;-53
2023/06/21 09:13:34;;;;;;;14.90;13.30;;;26.00;1.00;;;;;;5014328;28;20497;-53
2023/06/21 09:16:02;;;;;;;13.67;12.17;;;26.60;1.00;;;;;;5014638;28;20461;-53
2023/06/21 09:18:35;;;;;;;16.50;12.80;;;26.40;1.00;;;;;;5014507;28;20824;-53
2023/06/21 09:21:02;;;;;;;13.00;11.40;;;26.00;1.00;;;;;;5014848;28;20410;-53
2023/06/21 09:23:28;;;;;;;15.03;12.87;;;25.40;1.00;;;;;;5014793;28;20418;-53
2023/06/21 09:25:54;;;;;;;14.70;11.47;;;25.50;1.00;;;;;;5014582;28;20772;-53
2023/06/21 09:28:20;;;;;;;14.70;12.27;;;25.70;1.00;;;;;;5014360;28;20187;-53
2023/06/21 09:30:46;;;;;;;19.33;13.40;;;25.90;1.00;;;;;;5014515;28;20882;-53
2023/06/21 09:33:12;;;;;;;13.13;10.87;;;26.10;1.00;;;;;;5014439;28;20533;-53
2023/06/21 09:35:38;;;;;;;16.43;12.07;;;26.30;1.00;;;;;;5014230;28;20218;-53
2023/06/21 09:38:28;;;;;;;11.33;9.90;;;26.80;1.00;;;;;;5014157;28;20188;-53
2023/06/21 09:40:54;;;;;;;13.03;9.30;;;27.10;1.00;;;;;;5014124;28;20427;-53
2023/06/21 09:43:21;;;;;;;12.23;9.53;;;27.30;1.00;;;;;;5013757;28;20434;-51
2023/06/21 09:46:07;;;;;;;11.40;10.10;;;27.70;1.00;;;;;;5013877;28;20422;-51
2023/06/21 09:48:34;;;;;;;11.83;10.33;;;27.80;1.00;;;;;;5013753;28;20549;-53
2023/06/21 09:51:16;;;;;;;15.10;12.53;;;27.90;1.00;;;;;;5013914;28;20419;-54
2023/06/21 09:53:44;;;;;;;15.63;12.83;;;27.70;1.00;;;;;;5014341;28;20471;-53
2023/06/21 09:56:12;;;;;;;13.33;11.93;;;27.50;1.00;;;;;;5013892;28;20452;-51
2023/06/21 09:58:41;;;;;;;14.03;11.60;;;27.50;1.00;;;;;;5014313;28;20501;-53
2023/06/21 10:01:07;;;;;;;13.00;10.70;;;27.10;1.00;;;;;;5014026;28;20439;-52
2023/06/21 10:03:33;;;;;;;13.07;11.53;;;27.30;1.00;;;;;;5013592;28;20943;-52
2023/06/21 10:06:01;;;;;;;13.63;11.60;;;27.90;1.00;;;;;;5013547;28;20954;-53
2023/06/21 10:08:36;;;;;;;13.97;11.70;;;28.40;1.00;;;;;;5014049;28;20766;-52
2023/06/21 10:11:02;;;;;;;13.70;12.30;;;28.10;1.00;;;;;;5013593;28;20929;-52
2023/06/21 10:13:33;;;;;;;15.97;11.50;;;27.90;1.00;;;;;;5013497;28;20907;-52
2023/06/21 10:16:01;;;;;;;13.73;12.27;;;27.70;1.00;;;;;;5013869;28;20412;-52
2023/06/21 10:18:28;;;;;;;13.10;11.70;;;27.40;1.00;;;;;;5014233;28;20506;-52
2023/06/21 10:21:00;;;;;;;14.10;10.67;;;27.80;1.00;;;;;;5013828;28;20427;-52
2023/06/21 10:23:30;;;;;;;15.67;10.47;;;28.20;1.00;;;;;;5013875;28;20412;-53
2023/06/21 10:26:00;;;;;;;12.93;11.50;;;28.80;1.00;;;;;;5017500;28;20846;-52
2023/06/21 10:28:28;;;;;;;15.10;12.17;;;28.60;1.00;;;;;;5017562;28;20966;-52
2023/06/21 10:30:58;;;;;;;15.07;10.70;;;28.70;1.00;;;;;;5017335;28;20419;-53
2023/06/21 10:33:26;;;;;;;11.63;10.43;;;28.80;1.00;;;;;;5017435;28;20750;-53
2023/06/21 10:35:55;;;;;;;11.37;10.10;;;29.30;1.00;;;;;;5017603;28;20423;-54
2023/06/21 10:38:27;;;;;;;13.77;9.57;;;29.90;99.90;;;;;;5017332;28;20829;-56
2023/06/21 10:40:54;;;;;;;11.80;9.63;;;29.70;1.00;;;;;;5017440;28;20403;-54
2023/06/21 10:43:20;;;;;;;11.30;9.00;;;28.70;99.90;;;;;;5017255;28;21026;-54
2023/06/21 10:45:47;;;;;;;10.23;9.23;;;28.30;99.90;;;;;;5017530;28;20447;-53
2023/06/21 10:48:13;;;;;;;12.93;10.30;;;28.30;99.90;;;;;;5016696;28;20886;-53
2023/06/21 10:50:40;;;;;;;13.30;11.23;;;28.60;99.90;;;;;;5017236;28;20466;-53
2023/06/21 10:53:08;;;;;;;16.30;12.17;;;28.30;99.90;;;;;;5016253;28;20475;-53
2023/06/21 10:55:34;;;;;;;12.43;11.13;;;27.80;99.90;;;;;;5016972;28;20426;-53
2023/06/21 10:58:02;;;;;;;12.53;11.23;;;27.30;99.90;;;;;;5017050;28;20418;-53
2023/06/21 11:00:28;;;;;;;12.87;10.97;;;26.90;99.90;;;;;;5016764;28;20427;-53
2023/06/21 11:02:55;;;;;;;11.57;9.73;;;26.60;99.90;;;;;;5017253;28;20481;-53
2023/06/21 11:05:25;;;;;;;11.53;9.93;;;26.40;1.00;;;;;;5016734;28;20818;-53
2023/06/21 11:08:04;;;;;;;10.60;9.60;;;26.80;1.00;;;;;;5016521;28;20523;-53
2023/06/21 11:10:50;;;;;;;11.73;9.63;;;27.70;99.90;;;;;;5016864;28;20498;-52
2023/06/21 11:13:17;;;;;;;10.70;9.57;;;27.70;99.90;;;;;;5016406;28;20434;-52
2023/06/21 11:15:46;;;;;;;13.37;11.43;;;27.80;99.90;;;;;;5016809;28;20450;-52
2023/06/21 11:18:19;;;;;;;15.20;8.97;;;28.50;99.90;;;;;;5016716;28;20481;-52
2023/06/21 11:20:45;;;;;;;12.00;10.07;;;28.70;99.90;;;;;;5017205;28;20510;-54
2023/06/21 11:23:23;;;;;;;9.27;8.37;;;29.20;99.90;;;;;;5016595;28;20502;-53
2023/06/21 11:25:50;;;;;;;11.33;7.30;;;29.90;99.90;;;;;;5016358;28;20419;-53
2023/06/21 11:28:19;;;;;;;9.90;8.90;;;29.50;99.90;;;;;;5016432;28;20458;-53
2023/06/21 11:31:07;;;;;;;8.10;7.43;;;29.10;99.90;;;;;;5016478;28;20423;-53
2023/06/21 11:33:46;;;;;;;8.93;8.10;;;29.60;99.90;;;;;;5016158;28;20521;-54
2023/06/21 11:36:12;;;;;;;9.33;7.40;;;30.10;99.90;;;;;;5015441;28;20423;-54
2023/06/21 11:38:46;;;;;;;8.40;7.60;;;29.90;99.90;;;;;;5016373;28;20427;-53
2023/06/21 11:41:44;;;;;;;8.77;7.87;;;29.70;99.90;;;;;;5016302;28;20181;-54
2023/06/21 11:44:29;;;;;;;8.00;7.17;;;29.70;99.90;;;;;;5008515;28;20431;-54
2023/06/21 11:47:07;;;;;;;10.10;7.30;;;30.50;99.90;;;;;;5016165;28;20420;-54
2023/06/21 11:49:33;;;;;;;11.13;8.37;;;31.00;99.90;;;;;;5015948;28;20454;-55
2023/06/21 11:52:04;;;;;;;8.57;7.03;;;30.60;99.90;;;;;;5016131;28;20414;-54
2023/06/21 11:54:35;;;;;;;8.00;7.20;;;30.90;99.90;;;;;;5016215;28;20879;-54
2023/06/21 11:57:07;;;;;;;12.07;8.40;;;30.80;99.90;;;;;;5015979;28;20514;-54
2023/06/21 11:59:35;;;;;;;7.77;6.90;;;30.80;99.90;;;;;;5016263;28;20435;-53
2023/06/21 12:02:20;;;;;;;10.53;9.50;;;30.40;99.90;;;;;;5015935;28;20418;-53
2023/06/21 12:04:48;;;;;;;9.90;8.90;;;29.30;99.90;;;;;;5016248;28;20894;-53
2023/06/21 12:07:14;;;;;;;13.13;8.50;;;28.40;99.90;;;;;;5016014;28;20427;-53
2023/06/21 12:09:47;;;;;;;11.27;8.97;;;27.70;99.90;;;;;;5015725;28;20462;-53
2023/06/21 12:12:13;;;;;;;10.53;9.53;;;27.30;99.90;;;;;;5015414;28;21027;-53
2023/06/21 12:14:38;;;;;;;10.13;9.13;;;27.00;99.90;;;;;;5015978;28;20518;-53
2023/06/21 12:17:05;;;;;;;10.97;9.43;;;27.30;99.90;;;;;;5015848;28;20188;-53
2023/06/21 12:19:32;;;;;;;13.30;10.73;;;27.30;99.90;;;;;;5015494;28;20180;-53
2023/06/21 12:22:03;;;;;;;13.00;9.83;;;27.00;99.90;;;;;;5015576;28;20778;-53
2023/06/21 12:24:30;;;;;;;12.60;8.97;;;27.50;99.90;;;;;;5015148;28;20415;-53
2023/06/21 12:26:57;;;;;;;7.50;6.80;;;28.40;99.90;;;;;;5014806;28;20411;-52
2023/06/21 12:29:25;;;;;;;7.47;6.63;;;29.50;99.90;;;;;;5014966;28;20528;-52
2023/06/21 12:31:50;;;;;;;6.07;5.53;;;30.10;99.90;;;;;;5014560;28;20414;-54
2023/06/21 12:34:17;;;;;;;9.70;7.60;;;30.20;99.90;;;;;;5014950;28;20506;-53
2023/06/21 12:36:46;;;;;;;8.00;6.87;;;30.00;99.90;;;;;;5014436;28;20180;-51
2023/06/21 12:39:14;;;;;;;10.13;5.60;;;30.20;99.90;;;;;;5015115;28;20458;-53
2023/06/21 12:41:42;;;;;;;9.70;4.80;;;30.80;99.90;;;;;;5014765;28;20439;-53